createdAt,value
2023-02-26T00:01:26.364Z,96.77
2023-02-26T00:03:55.078Z,96.14
2023-02-26T00:06:22.512Z,96.59
2023-02-26T00:08:49.135Z,94.97
2023-02-26T00:11:16.151Z,94.55
2023-02-26T00:13:44.751Z,95.54
2023-02-26T00:16:33.093Z,94.60
2023-02-26T00:19:03.096Z,95.58
2023-02-26T00:21:31.476Z,96.07
2023-02-26T00:23:58.375Z,96.19
2023-02-26T00:26:27.277Z,95.86
2023-02-26T00:28:54.772Z,96.34
2023-02-26T00:31:25.568Z,95.47
2023-02-26T00:33:55.145Z,95.03
2023-02-26T00:36:33.698Z,94.49
2023-02-26T00:39:05.167Z,93.77
2023-02-26T00:41:32.238Z,95.24
2023-02-26T00:43:59.739Z,94.18
2023-02-26T00:46:40.097Z,94.33
2023-02-26T00:49:31.199Z,95.06
2023-02-26T00:52:03.539Z,95.64
2023-02-26T00:54:31.435Z,95.51
2023-02-26T00:56:59.033Z,95.39
2023-02-26T00:59:26.174Z,95.31
2023-02-26T01:01:53.703Z,94.38
2023-02-26T01:04:22.306Z,94.42
2023-02-26T01:06:52.538Z,95.25
2023-02-26T01:09:25.742Z,94.84
2023-02-26T01:11:53.421Z,95.31
2023-02-26T01:14:20.316Z,95.50
2023-02-26T01:17:10.619Z,94.36
2023-02-26T01:19:43.752Z,94.52
2023-02-26T01:22:18.520Z,94.89
2023-02-26T01:24:47.334Z,96.37
2023-02-26T01:27:14.406Z,95.18
2023-02-26T01:29:41.046Z,95.85
2023-02-26T01:32:46.597Z,95.22
2023-02-26T01:35:23.445Z,94.36
2023-02-26T01:38:06.452Z,94.37
2023-02-26T01:40:54.581Z,96.24
2023-02-26T01:43:29.037Z,94.91
2023-02-26T01:46:04.118Z,95.37
2023-02-26T01:48:43.221Z,95.30
2023-02-26T01:51:09.738Z,93.99
2023-02-26T01:53:36.743Z,93.96
2023-02-26T01:56:09.364Z,95.32
2023-02-26T01:58:36.671Z,94.72
2023-02-26T02:01:04.168Z,95.21
2023-02-26T02:03:33.112Z,94.82
2023-02-26T02:06:07.073Z,96.56
2023-02-26T02:08:35.681Z,96.17
2023-02-26T02:11:04.569Z,95.23
2023-02-26T02:13:50.855Z,94.65
2023-02-26T02:16:35.919Z,95.39
2023-02-26T02:19:34.144Z,96.09
2023-02-26T02:22:40.887Z,95.75
2023-02-26T02:25:35.779Z,94.94
2023-02-26T02:28:29.325Z,94.79
2023-02-26T02:31:10.081Z,94.82
2023-02-26T02:33:51.361Z,94.69
2023-02-26T02:36:42.890Z,95.42
2023-02-26T02:39:20.612Z,95.53
2023-02-26T02:41:53.629Z,95.52
2023-02-26T02:44:23.555Z,94.32
2023-02-26T02:46:52.881Z,94.49
2023-02-26T02:49:27.335Z,95.51
2023-02-26T02:52:02.676Z,94.99
2023-02-26T02:54:47.261Z,95.89
2023-02-26T02:57:19.508Z,95.12
2023-02-26T02:59:49.443Z,94.39
2023-02-26T03:02:53.890Z,94.53
2023-02-26T03:05:20.506Z,94.61
2023-02-26T03:07:57.537Z,95.09
2023-02-26T03:10:24.356Z,95.59
2023-02-26T03:12:51.129Z,94.64
2023-02-26T03:15:26.186Z,94.93
2023-02-26T03:18:04.218Z,94.83
2023-02-26T03:20:36.766Z,94.03
2023-02-26T03:23:06.351Z,94.01
2023-02-26T03:25:46.011Z,95.19
2023-02-26T03:28:25.553Z,94.70
2023-02-26T03:31:11.034Z,93.85
2023-02-26T03:33:54.495Z,94.62
2023-02-26T03:36:27.008Z,94.34
2023-02-26T03:39:03.540Z,94.52
2023-02-26T03:41:34.534Z,94.52
2023-02-26T03:44:09.873Z,94.41
2023-02-26T03:46:41.552Z,93.59
2023-02-26T03:49:16.647Z,93.51
2023-02-26T03:51:44.745Z,93.70
2023-02-26T03:54:24.103Z,94.41
2023-02-26T03:56:50.719Z,94.39
2023-02-26T03:59:17.968Z,93.84
2023-02-26T04:02:10.643Z,94.23
2023-02-26T04:04:51.054Z,95.01
2023-02-26T04:07:18.742Z,94.54
2023-02-26T04:09:47.423Z,94.30
2023-02-26T04:12:14.435Z,93.68
2023-02-26T04:14:40.876Z,93.50
2023-02-26T04:17:07.523Z,93.75
2023-02-26T04:19:33.979Z,94.24
2023-02-26T04:22:00.548Z,93.96
2023-02-26T04:24:26.980Z,93.49
2023-02-26T04:26:53.489Z,93.35
2023-02-26T04:29:20.011Z,92.76
2023-02-26T04:31:46.677Z,92.36
2023-02-26T04:34:13.509Z,92.37
2023-02-26T04:36:40.118Z,92.61
2023-02-26T04:39:10.633Z,92.58
2023-02-26T04:41:37.973Z,92.15
2023-02-26T04:44:05.316Z,92.15
2023-02-26T04:46:32.358Z,93.24
2023-02-26T04:48:58.914Z,92.54
2023-02-26T04:51:25.718Z,92.91
2023-02-26T04:53:52.367Z,91.87
2023-02-26T04:56:18.994Z,92.06
2023-02-26T04:58:45.518Z,92.41
2023-02-26T05:01:13.660Z,92.42
2023-02-26T05:03:40.391Z,92.05
2023-02-26T05:06:07.822Z,90.69
2023-02-26T05:08:34.343Z,91.15
2023-02-26T05:11:01.288Z,91.51
2023-02-26T05:13:27.815Z,90.67
2023-02-26T05:15:54.883Z,90.89
2023-02-26T05:18:21.380Z,91.62
2023-02-26T05:20:53.640Z,91.33
2023-02-26T05:23:20.556Z,91.14
2023-02-26T05:25:47.386Z,91.42
2023-02-26T05:28:14.178Z,93.10
2023-02-26T05:30:40.869Z,92.82
2023-02-26T05:33:07.493Z,92.50
2023-02-26T05:35:34.087Z,92.28
2023-02-26T05:38:00.552Z,91.67
2023-02-26T05:40:27.055Z,91.04
2023-02-26T05:42:53.504Z,92.23
2023-02-26T05:45:19.923Z,91.75
2023-02-26T05:47:46.465Z,91.66
2023-02-26T05:50:13.787Z,91.75
2023-02-26T05:52:40.715Z,92.19
2023-02-26T05:55:08.257Z,92.57
2023-02-26T05:57:34.769Z,91.65
2023-02-26T06:00:01.344Z,92.86
2023-02-26T06:02:28.065Z,92.53
2023-02-26T06:04:54.658Z,91.05
2023-02-26T06:07:21.580Z,92.15
2023-02-26T06:09:48.122Z,91.67
2023-02-26T06:12:14.608Z,90.60
2023-02-26T06:14:41.258Z,91.55
2023-02-26T06:17:08.447Z,91.99
2023-02-26T06:19:35.008Z,91.63
2023-02-26T06:22:01.902Z,91.90
2023-02-26T06:24:28.427Z,91.60
2023-02-26T06:26:55.025Z,92.03
2023-02-26T06:29:21.922Z,92.61
2023-02-26T06:31:48.530Z,91.86
2023-02-26T06:34:15.534Z,91.54
2023-02-26T06:36:42.038Z,91.37
2023-02-26T06:39:08.633Z,91.04
2023-02-26T06:41:35.183Z,91.45
2023-02-26T06:44:01.696Z,91.62
2023-02-26T06:46:28.212Z,92.30
2023-02-26T06:48:54.762Z,90.56
2023-02-26T06:51:21.271Z,92.03
2023-02-26T06:53:47.742Z,91.47
2023-02-26T06:56:14.535Z,91.06
2023-02-26T06:58:41.040Z,91.27
2023-02-26T07:01:07.527Z,90.83
2023-02-26T07:03:34.067Z,91.97
2023-02-26T07:06:18.738Z,90.96
2023-02-26T07:08:47.570Z,91.13
2023-02-26T07:11:14.742Z,90.98
2023-02-26T07:13:41.370Z,91.67
2023-02-26T07:16:08.512Z,90.57
2023-02-26T07:18:37.422Z,90.72
2023-02-26T07:21:04.882Z,90.62
2023-02-26T07:23:31.797Z,91.44
2023-02-26T07:25:58.380Z,90.17
2023-02-26T07:28:25.133Z,90.12
2023-02-26T07:30:54.601Z,89.47
2023-02-26T07:33:21.428Z,90.72
2023-02-26T07:35:48.392Z,90.86
2023-02-26T07:38:15.005Z,90.18
2023-02-26T07:40:41.473Z,90.08
2023-02-26T07:43:08.004Z,90.95
2023-02-26T07:45:34.518Z,89.94
2023-02-26T07:48:00.973Z,90.53
2023-02-26T07:50:27.712Z,89.63
2023-02-26T07:52:54.297Z,89.28
2023-02-26T07:55:21.249Z,89.77
2023-02-26T07:57:47.716Z,90.46
2023-02-26T08:00:15.574Z,88.75
2023-02-26T08:02:42.108Z,89.11
2023-02-26T08:05:08.770Z,89.01
2023-02-26T08:07:35.371Z,88.53
2023-02-26T08:10:02.061Z,89.05
2023-02-26T08:12:28.686Z,89.72
2023-02-26T08:14:55.243Z,89.58
2023-02-26T08:17:22.529Z,89.15
2023-02-26T08:19:48.993Z,87.92
2023-02-26T08:22:15.465Z,88.16
2023-02-26T08:24:42.435Z,87.72
2023-02-26T08:27:08.940Z,88.94
2023-02-26T08:29:35.646Z,88.34
2023-02-26T08:32:02.199Z,86.25
2023-02-26T08:34:28.796Z,86.24
2023-02-26T08:36:55.487Z,87.34
2023-02-26T08:39:22.033Z,87.97
2023-02-26T08:41:48.730Z,86.13
2023-02-26T08:44:15.310Z,87.01
2023-02-26T08:46:41.920Z,86.35
2023-02-26T08:49:08.524Z,85.95
2023-02-26T08:51:35.186Z,86.17
2023-02-26T08:54:01.855Z,86.59
2023-02-26T08:56:28.523Z,88.01
2023-02-26T08:58:55.124Z,87.48
2023-02-26T09:01:22.399Z,86.35
2023-02-26T09:03:48.938Z,87.24
2023-02-26T09:06:15.465Z,85.76
2023-02-26T09:08:42.164Z,86.96
2023-02-26T09:11:08.733Z,86.88
2023-02-26T09:13:35.646Z,85.41
2023-02-26T09:16:02.265Z,84.75
2023-02-26T09:18:28.903Z,86.67
2023-02-26T09:20:55.509Z,86.20
2023-02-26T09:23:22.255Z,85.77
2023-02-26T09:25:57.828Z,86.70
2023-02-26T09:28:25.413Z,86.94
2023-02-26T09:30:53.604Z,88.09
2023-02-26T09:33:20.916Z,87.19
2023-02-26T09:35:51.443Z,87.28
2023-02-26T09:38:18.458Z,85.13
2023-02-26T09:40:57.504Z,86.77
2023-02-26T09:43:27.100Z,86.78
2023-02-26T09:45:55.025Z,85.49
2023-02-26T09:48:22.478Z,84.10
2023-02-26T09:50:55.185Z,82.15
2023-02-26T09:53:28.127Z,80.85
2023-02-26T09:55:58.990Z,78.43
2023-02-26T09:58:33.066Z,80.39
2023-02-26T10:01:16.476Z,77.15
2023-02-26T10:04:23.767Z,78.67
2023-02-26T10:06:53.293Z,81.41
2023-02-26T10:09:27.253Z,74.44
2023-02-26T10:12:03.633Z,74.42
2023-02-26T10:15:03.903Z,75.39
2023-02-26T10:17:35.590Z,77.47
2023-02-26T10:20:18.324Z,77.90
2023-02-26T10:22:59.720Z,76.30
2023-02-26T10:25:35.035Z,74.97
2023-02-26T10:28:26.663Z,73.09
2023-02-26T10:31:03.403Z,73.24
2023-02-26T10:33:40.700Z,72.26
2023-02-26T10:36:26.140Z,71.67
2023-02-26T10:39:17.823Z,74.87
2023-02-26T10:41:45.199Z,74.06
2023-02-26T10:44:20.741Z,78.72
2023-02-26T10:47:21.284Z,77.42
2023-02-26T10:49:56.988Z,74.87
2023-02-26T10:52:25.942Z,69.91
2023-02-26T10:55:04.574Z,59.48
2023-02-26T10:57:34.146Z,61.57
2023-02-26T11:00:01.536Z,61.59
2023-02-26T11:02:35.909Z,65.41
2023-02-26T11:05:07.910Z,65.27
2023-02-26T11:07:36.704Z,65.56
2023-02-26T11:10:03.786Z,66.33
2023-02-26T11:12:32.014Z,62.82
2023-02-26T11:15:01.119Z,60.46
2023-02-26T11:17:32.301Z,57.40
2023-02-26T11:20:12.330Z,57.82
2023-02-26T11:22:39.398Z,58.05
2023-02-26T11:25:06.556Z,61.66
2023-02-26T11:27:38.098Z,62.03
2023-02-26T11:30:18.545Z,60.84
2023-02-26T11:32:46.200Z,65.90
2023-02-26T11:35:14.972Z,63.47
2023-02-26T11:37:46.533Z,61.57
2023-02-26T11:40:22.603Z,63.21
2023-02-26T11:42:58.745Z,65.75
2023-02-26T11:45:25.732Z,67.51
2023-02-26T11:48:06.890Z,67.29
2023-02-26T11:50:43.295Z,68.22
2023-02-26T11:53:24.471Z,69.94
2023-02-26T11:56:09.458Z,67.62
2023-02-26T11:58:39.347Z,68.56
2023-02-26T12:01:08.489Z,66.66
2023-02-26T12:03:40.878Z,64.05
2023-02-26T12:06:15.663Z,66.41
2023-02-26T12:08:42.143Z,61.98
2023-02-26T12:11:08.678Z,65.43
2023-02-26T12:14:12.704Z,64.31
2023-02-26T12:16:52.092Z,64.09
2023-02-26T12:19:22.091Z,64.13
2023-02-26T12:22:06.976Z,62.30
2023-02-26T12:24:55.385Z,64.64
2023-02-26T12:27:37.956Z,67.69
2023-02-26T12:30:39.078Z,67.54
2023-02-26T12:33:10.681Z,68.41
2023-02-26T12:35:59.292Z,68.45
2023-02-26T12:38:37.771Z,66.79
2023-02-26T12:41:10.861Z,67.31
2023-02-26T12:43:50.159Z,70.09
2023-02-26T12:46:38.134Z,68.47
2023-02-26T12:49:17.162Z,72.22
2023-02-26T12:51:54.465Z,69.67
2023-02-26T12:54:36.719Z,72.03
2023-02-26T12:57:07.377Z,71.51
2023-02-26T12:59:52.669Z,73.23
2023-02-26T13:02:28.661Z,70.75
2023-02-26T13:05:22.618Z,68.20
2023-02-26T13:07:52.939Z,70.47
2023-02-26T13:10:38.662Z,69.36
2023-02-26T13:13:28.491Z,68.44
2023-02-26T13:16:13.813Z,66.35
2023-02-26T13:18:52.480Z,66.78
2023-02-26T13:21:27.663Z,67.52
2023-02-26T13:24:05.169Z,65.99
2023-02-26T13:26:33.856Z,65.64
2023-02-26T13:29:11.596Z,65.81
2023-02-26T13:31:51.118Z,70.00
2023-02-26T13:34:30.493Z,73.58
2023-02-26T13:36:57.405Z,76.04
2023-02-26T13:39:40.458Z,74.87
2023-02-26T13:42:27.467Z,75.69
2023-02-26T13:45:03.394Z,73.53
2023-02-26T13:48:02.420Z,74.80
2023-02-26T13:50:39.596Z,74.60
2023-02-26T13:53:41.106Z,74.02
2023-02-26T13:56:15.511Z,72.59
2023-02-26T13:58:44.642Z,71.98
2023-02-26T14:01:17.363Z,72.13
2023-02-26T14:04:22.562Z,71.79
2023-02-26T14:06:52.536Z,70.27
2023-02-26T14:09:21.988Z,71.28
2023-02-26T14:12:02.220Z,70.04
2023-02-26T14:14:41.544Z,69.80
2023-02-26T14:17:08.172Z,70.44
2023-02-26T14:19:54.047Z,70.62
2023-02-26T14:22:25.972Z,70.43
2023-02-26T14:25:11.477Z,71.18
2023-02-26T14:27:40.466Z,72.19
2023-02-26T14:30:10.086Z,70.90
2023-02-26T14:32:53.318Z,68.46
2023-02-26T14:35:22.128Z,69.41
2023-02-26T14:38:03.334Z,63.92
2023-02-26T14:40:40.156Z,63.24
2023-02-26T14:43:14.876Z,64.52
2023-02-26T14:45:42.891Z,61.17
2023-02-26T14:48:18.015Z,62.60
2023-02-26T14:51:08.953Z,63.97
2023-02-26T14:53:35.507Z,64.59
2023-02-26T14:56:08.152Z,66.27
2023-02-26T14:59:02.377Z,65.82
2023-02-26T15:01:45.546Z,65.41
2023-02-26T15:04:57.258Z,68.10
2023-02-26T15:07:54.531Z,67.32
2023-02-26T15:10:33.099Z,66.92
2023-02-26T15:13:27.612Z,72.02
2023-02-26T15:16:10.896Z,73.88
2023-02-26T15:18:49.397Z,72.17
2023-02-26T15:21:43.541Z,72.21
2023-02-26T15:24:12.002Z,75.19
2023-02-26T15:26:45.605Z,74.76
2023-02-26T15:29:13.783Z,75.43
2023-02-26T15:32:03.306Z,74.72
2023-02-26T15:34:30.826Z,74.06
2023-02-26T15:36:58.638Z,74.49
2023-02-26T15:39:25.814Z,72.98
2023-02-26T15:41:54.134Z,71.64
2023-02-26T15:44:31.416Z,71.32
2023-02-26T15:47:01.279Z,71.73
2023-02-26T15:49:48.392Z,74.13
2023-02-26T15:52:18.137Z,73.28
2023-02-26T15:54:49.780Z,74.60
2023-02-26T15:57:17.684Z,75.38
2023-02-26T15:59:46.604Z,75.12
2023-02-26T16:02:21.038Z,74.30
2023-02-26T16:04:47.996Z,75.57
2023-02-26T16:07:14.574Z,76.62
2023-02-26T16:09:45.804Z,75.54
2023-02-26T16:12:31.959Z,75.62
2023-02-26T16:15:04.863Z,75.79
2023-02-26T16:17:35.791Z,75.43
2023-02-26T16:20:11.335Z,75.17
2023-02-26T16:22:42.338Z,75.69
2023-02-26T16:25:25.106Z,76.66
2023-02-26T16:28:04.156Z,76.30
2023-02-26T16:30:35.088Z,77.05
2023-02-26T16:33:02.191Z,76.41
2023-02-26T16:35:34.831Z,76.63
2023-02-26T16:38:12.351Z,77.17
2023-02-26T16:43:33.548Z,80.04
2023-02-26T16:46:04.369Z,80.35
2023-02-26T16:48:48.484Z,81.66
2023-02-26T16:51:19.960Z,82.06
2023-02-26T16:53:51.017Z,82.78
2023-02-26T16:56:19.608Z,82.53
2023-02-26T16:58:51.493Z,83.82
2023-02-26T17:01:19.111Z,83.63
2023-02-26T17:03:55.666Z,84.25
2023-02-26T17:06:22.759Z,85.13
2023-02-26T17:08:55.733Z,85.64
2023-02-26T17:11:30.988Z,86.75
2023-02-26T17:14:08.885Z,87.10
2023-02-26T17:16:35.549Z,87.17
2023-02-26T17:19:02.748Z,87.46
2023-02-26T17:21:30.966Z,87.06
2023-02-26T17:23:57.868Z,86.70
2023-02-26T17:26:25.100Z,85.65
2023-02-26T17:28:51.576Z,84.02
2023-02-26T17:31:18.089Z,85.22
2023-02-26T17:33:44.871Z,82.94
2023-02-26T17:36:16.040Z,84.02
2023-02-26T17:38:46.978Z,83.85
2023-02-26T17:41:17.682Z,79.57
2023-02-26T17:43:44.292Z,79.34
2023-02-26T17:46:12.277Z,79.94
2023-02-26T17:48:39.018Z,79.83
2023-02-26T17:51:05.702Z,80.66
2023-02-26T17:53:40.738Z,81.63
2023-02-26T17:56:12.201Z,84.49
2023-02-26T17:58:40.723Z,85.12
2023-02-26T18:01:08.509Z,85.43
2023-02-26T18:03:35.197Z,85.19
2023-02-26T18:06:01.861Z,85.44
2023-02-26T18:08:30.565Z,86.08
2023-02-26T18:10:58.598Z,85.97
2023-02-26T18:13:26.824Z,87.48
2023-02-26T18:15:53.681Z,87.75
2023-02-26T18:18:20.381Z,88.04
2023-02-26T18:20:47.452Z,88.74
2023-02-26T18:23:16.643Z,88.29
2023-02-26T18:25:47.348Z,87.85
2023-02-26T18:28:24.395Z,88.51
2023-02-26T18:30:52.275Z,88.70
2023-02-26T18:33:19.532Z,89.76
2023-02-26T18:35:47.923Z,90.43
2023-02-26T18:38:16.272Z,89.43
2023-02-26T18:40:43.613Z,88.64
2023-02-26T18:43:12.696Z,88.25
2023-02-26T18:45:40.453Z,88.66
2023-02-26T18:48:07.108Z,87.37
2023-02-26T18:50:34.636Z,88.04
2023-02-26T18:53:02.168Z,88.89
2023-02-26T18:55:28.739Z,88.22
2023-02-26T18:57:55.859Z,89.38
2023-02-26T19:00:23.755Z,88.70
2023-02-26T19:02:50.888Z,88.28
2023-02-26T19:05:18.600Z,88.77
2023-02-26T19:07:45.181Z,88.82
2023-02-26T19:10:14.737Z,88.84
2023-02-26T19:12:42.110Z,88.89
2023-02-26T19:15:10.033Z,88.79
2023-02-26T19:17:36.505Z,89.11
2023-02-26T19:20:03.395Z,87.70
2023-02-26T19:22:30.127Z,86.61
2023-02-26T19:24:57.896Z,86.35
2023-02-26T19:27:24.804Z,86.54
2023-02-26T19:29:51.381Z,86.14
2023-02-26T19:32:18.033Z,86.41
2023-02-26T19:34:44.674Z,86.79
2023-02-26T19:37:11.442Z,86.92
2023-02-26T19:39:38.451Z,88.07
2023-02-26T19:42:05.889Z,86.68
2023-02-26T19:44:32.862Z,87.01
2023-02-26T19:46:59.800Z,86.83
2023-02-26T19:49:26.491Z,86.96
2023-02-26T19:51:53.181Z,87.40
2023-02-26T19:54:20.084Z,87.80
2023-02-26T19:56:46.834Z,87.13
2023-02-26T19:59:13.363Z,87.86
2023-02-26T20:01:41.405Z,88.15
2023-02-26T20:04:09.100Z,87.34
2023-02-26T20:06:35.789Z,87.32
2023-02-26T20:09:03.422Z,86.16
2023-02-26T20:11:29.930Z,85.21
2023-02-26T20:13:56.478Z,85.01
2023-02-26T20:16:25.994Z,82.15
2023-02-26T20:18:52.539Z,82.12
2023-02-26T20:21:19.178Z,80.87
2023-02-26T20:23:45.778Z,82.02
2023-02-26T20:26:14.339Z,81.10
2023-02-26T20:28:42.298Z,81.41
2023-02-26T20:31:09.076Z,79.94
2023-02-26T20:33:37.444Z,80.25
2023-02-26T20:36:04.475Z,80.70
2023-02-26T20:38:31.064Z,80.38
2023-02-26T20:40:57.710Z,79.39
2023-02-26T20:43:27.612Z,79.47
2023-02-26T20:45:55.190Z,80.83
2023-02-26T20:48:22.125Z,81.08
2023-02-26T20:50:48.874Z,80.72
2023-02-26T20:53:15.462Z,79.96
2023-02-26T20:55:41.982Z,79.88
2023-02-26T20:58:08.434Z,79.64
2023-02-26T21:00:34.985Z,79.86
2023-02-26T21:03:01.578Z,79.35
2023-02-26T21:05:28.228Z,79.03
2023-02-26T21:07:54.991Z,78.92
2023-02-26T21:10:21.524Z,79.05
2023-02-26T21:12:48.134Z,78.69
2023-02-26T21:15:14.853Z,79.47
2023-02-26T21:17:42.959Z,79.40
2023-02-26T21:20:11.999Z,78.73
2023-02-26T21:22:39.138Z,79.08
2023-02-26T21:25:06.812Z,79.07
2023-02-26T21:27:34.099Z,79.83
2023-02-26T21:30:00.643Z,80.01
2023-02-26T21:32:27.689Z,80.00
2023-02-26T21:34:54.295Z,79.35
2023-02-26T21:37:20.849Z,80.46
2023-02-26T21:39:48.160Z,80.34
2023-02-26T21:42:14.904Z,80.12
2023-02-26T21:44:41.651Z,80.34
2023-02-26T21:47:08.576Z,79.86
2023-02-26T21:49:35.226Z,80.24
2023-02-26T21:52:04.474Z,80.41
2023-02-26T21:54:31.456Z,80.51
2023-02-26T21:56:58.345Z,81.34
2023-02-26T21:59:24.973Z,81.50
2023-02-26T22:01:52.356Z,82.21
2023-02-26T22:04:19.603Z,82.93
2023-02-26T22:06:46.216Z,83.35
2023-02-26T22:09:13.073Z,82.71
2023-02-26T22:11:39.757Z,82.92
2023-02-26T22:14:06.283Z,83.81
2023-02-26T22:16:32.922Z,83.24
2023-02-26T22:18:59.410Z,84.01
2023-02-26T22:21:26.303Z,85.09
2023-02-26T22:23:52.991Z,85.10
2023-02-26T22:26:19.916Z,84.73
2023-02-26T22:28:46.375Z,85.16
2023-02-26T22:31:12.976Z,85.68
2023-02-26T22:33:39.838Z,86.04
2023-02-26T22:36:06.682Z,86.94
2023-02-26T22:38:33.173Z,87.26
2023-02-26T22:40:59.673Z,86.57
2023-02-26T22:43:26.146Z,86.64
2023-02-26T22:45:52.796Z,86.16
2023-02-26T22:48:20.829Z,86.37
2023-02-26T22:50:49.017Z,85.99
2023-02-26T22:53:15.512Z,85.84
2023-02-26T22:55:42.087Z,86.33
2023-02-26T22:58:08.653Z,86.33
2023-02-26T23:00:35.393Z,85.91
2023-02-26T23:03:02.197Z,86.08
2023-02-26T23:05:28.876Z,86.33
2023-02-26T23:07:55.556Z,87.38
2023-02-26T23:10:22.416Z,87.31
2023-02-26T23:12:49.196Z,88.11
2023-02-26T23:15:15.759Z,87.81
2023-02-26T23:17:42.955Z,88.31
2023-02-26T23:20:13.778Z,88.77
2023-02-26T23:22:41.365Z,88.80
2023-02-26T23:25:08.242Z,89.19
2023-02-26T23:27:37.976Z,89.46
2023-02-26T23:30:05.242Z,89.13
2023-02-26T23:32:31.736Z,90.01
2023-02-26T23:34:58.162Z,89.62
2023-02-26T23:37:24.878Z,88.73
2023-02-26T23:39:51.406Z,88.84
2023-02-26T23:42:18.115Z,89.63
2023-02-26T23:44:44.737Z,89.88
2023-02-26T23:47:11.392Z,90.89
2023-02-26T23:49:37.947Z,90.28
2023-02-26T23:52:04.474Z,91.08
2023-02-26T23:54:31.106Z,91.44
2023-02-26T23:56:58.068Z,91.17
2023-02-26T23:59:24.571Z,91.60
